sensor_id;sensor_type;location;lat;lon;timestamp;P1;durP1;ratioP1;P2;durP2;ratioP2
23410;SDS011;11878;51.774;7.220;2023-04-25T00:00:47;13.13;;;3.33;;
23410;SDS011;11878;51.774;7.220;2023-04-25T00:03:49;12.97;;;3.37;;
23410;SDS011;11878;51.774;7.220;2023-04-25T00:06:53;8.10;;;3.73;;
23410;SDS011;11878;51.774;7.220;2023-04-25T00:09:55;9.87;;;3.10;;
23410;SDS011;11878;51.774;7.220;2023-04-25T00:12:57;11.03;;;3.07;;
23410;SDS011;11878;51.774;7.220;2023-04-25T00:15:59;6.50;;;2.70;;
23410;SDS011;11878;51.774;7.220;2023-04-25T00:19:01;5.47;;;3.17;;
23410;SDS011;11878;51.774;7.220;2023-04-25T00:22:03;12.77;;;3.83;;
23410;SDS011;11878;51.774;7.220;2023-04-25T00:25:06;14.40;;;3.50;;
23410;SDS011;11878;51.774;7.220;2023-04-25T00:28:09;13.13;;;3.90;;
23410;SDS011;11878;51.774;7.220;2023-04-25T00:31:10;11.97;;;3.33;;
23410;SDS011;11878;51.774;7.220;2023-04-25T00:34:14;17.00;;;4.23;;
23410;SDS011;11878;51.774;7.220;2023-04-25T00:37:16;7.20;;;3.00;;
23410;SDS011;11878;51.774;7.220;2023-04-25T00:40:19;8.30;;;3.83;;
23410;SDS011;11878;51.774;7.220;2023-04-25T00:43:21;10.63;;;3.40;;
23410;SDS011;11878;51.774;7.220;2023-04-25T00:46:23;13.27;;;3.87;;
23410;SDS011;11878;51.774;7.220;2023-04-25T00:49:24;10.23;;;3.50;;
23410;SDS011;11878;51.774;7.220;2023-04-25T00:52:26;8.73;;;3.40;;
23410;SDS011;11878;51.774;7.220;2023-04-25T00:55:28;6.77;;;3.17;;
23410;SDS011;11878;51.774;7.220;2023-04-25T00:58:32;5.83;;;2.43;;
23410;SDS011;11878;51.774;7.220;2023-04-25T01:01:34;4.80;;;2.50;;
23410;SDS011;11878;51.774;7.220;2023-04-25T01:04:36;11.40;;;3.40;;
23410;SDS011;11878;51.774;7.220;2023-04-25T01:07:38;7.37;;;3.00;;
23410;SDS011;11878;51.774;7.220;2023-04-25T01:10:41;12.77;;;3.17;;
23410;SDS011;11878;51.774;7.220;2023-04-25T01:13:43;8.00;;;3.30;;
23410;SDS011;11878;51.774;7.220;2023-04-25T01:16:45;7.63;;;3.33;;
23410;SDS011;11878;51.774;7.220;2023-04-25T01:19:47;8.40;;;3.13;;
23410;SDS011;11878;51.774;7.220;2023-04-25T01:22:50;8.50;;;3.57;;
23410;SDS011;11878;51.774;7.220;2023-04-25T01:25:53;10.00;;;3.10;;
23410;SDS011;11878;51.774;7.220;2023-04-25T01:28:55;7.53;;;2.50;;
23410;SDS011;11878;51.774;7.220;2023-04-25T01:31:57;4.13;;;2.30;;
23410;SDS011;11878;51.774;7.220;2023-04-25T01:35:01;8.30;;;2.27;;
23410;SDS011;11878;51.774;7.220;2023-04-25T01:38:03;6.90;;;2.87;;
23410;SDS011;11878;51.774;7.220;2023-04-25T01:41:06;8.57;;;2.83;;
23410;SDS011;11878;51.774;7.220;2023-04-25T01:44:08;11.90;;;3.10;;
23410;SDS011;11878;51.774;7.220;2023-04-25T01:47:11;12.30;;;2.83;;
23410;SDS011;11878;51.774;7.220;2023-04-25T01:50:13;7.33;;;2.30;;
23410;SDS011;11878;51.774;7.220;2023-04-25T01:53:14;12.50;;;3.10;;
23410;SDS011;11878;51.774;7.220;2023-04-25T01:56:18;5.97;;;2.10;;
23410;SDS011;11878;51.774;7.220;2023-04-25T01:59:20;8.77;;;2.60;;
23410;SDS011;11878;51.774;7.220;2023-04-25T02:02:49;6.20;;;2.40;;
23410;SDS011;11878;51.774;7.220;2023-04-25T02:06:02;13.43;;;2.50;;
23410;SDS011;11878;51.774;7.220;2023-04-25T02:09:06;5.80;;;2.60;;
23410;SDS011;11878;51.774;7.220;2023-04-25T02:12:09;9.27;;;2.73;;
23410;SDS011;11878;51.774;7.220;2023-04-25T02:15:29;9.73;;;2.40;;
23410;SDS011;11878;51.774;7.220;2023-04-25T02:18:36;10.60;;;3.60;;
23410;SDS011;11878;51.774;7.220;2023-04-25T02:21:40;9.17;;;2.67;;
23410;SDS011;11878;51.774;7.220;2023-04-25T02:24:42;12.70;;;3.47;;
23410;SDS011;11878;51.774;7.220;2023-04-25T02:27:44;7.27;;;2.40;;
23410;SDS011;11878;51.774;7.220;2023-04-25T02:30:45;5.23;;;2.03;;
23410;SDS011;11878;51.774;7.220;2023-04-25T02:33:47;10.00;;;2.07;;
23410;SDS011;11878;51.774;7.220;2023-04-25T02:36:50;6.87;;;2.30;;
23410;SDS011;11878;51.774;7.220;2023-04-25T02:39:52;16.60;;;2.73;;
23410;SDS011;11878;51.774;7.220;2023-04-25T02:42:53;8.20;;;2.40;;
23410;SDS011;11878;51.774;7.220;2023-04-25T02:45:55;11.67;;;2.23;;
23410;SDS011;11878;51.774;7.220;2023-04-25T02:48:57;9.33;;;2.17;;
23410;SDS011;11878;51.774;7.220;2023-04-25T02:51:58;11.33;;;2.67;;
23410;SDS011;11878;51.774;7.220;2023-04-25T02:55:00;11.90;;;2.43;;
23410;SDS011;11878;51.774;7.220;2023-04-25T02:58:04;9.07;;;1.97;;
23410;SDS011;11878;51.774;7.220;2023-04-25T03:01:16;13.00;;;3.50;;
23410;SDS011;11878;51.774;7.220;2023-04-25T03:04:18;12.80;;;2.80;;
23410;SDS011;11878;51.774;7.220;2023-04-25T03:07:21;12.67;;;2.90;;
23410;SDS011;11878;51.774;7.220;2023-04-25T03:10:23;8.77;;;2.43;;
23410;SDS011;11878;51.774;7.220;2023-04-25T03:13:24;16.53;;;2.87;;
23410;SDS011;11878;51.774;7.220;2023-04-25T03:16:27;15.10;;;3.30;;
23410;SDS011;11878;51.774;7.220;2023-04-25T03:19:29;12.63;;;2.83;;
23410;SDS011;11878;51.774;7.220;2023-04-25T03:22:31;10.23;;;2.60;;
23410;SDS011;11878;51.774;7.220;2023-04-25T03:25:32;13.40;;;2.63;;
23410;SDS011;11878;51.774;7.220;2023-04-25T03:28:34;13.10;;;2.87;;
23410;SDS011;11878;51.774;7.220;2023-04-25T03:31:36;14.10;;;2.33;;
23410;SDS011;11878;51.774;7.220;2023-04-25T03:34:38;12.17;;;2.80;;
23410;SDS011;11878;51.774;7.220;2023-04-25T03:37:41;11.97;;;2.90;;
23410;SDS011;11878;51.774;7.220;2023-04-25T03:40:51;12.83;;;2.80;;
23410;SDS011;11878;51.774;7.220;2023-04-25T03:44:13;15.53;;;3.93;;
23410;SDS011;11878;51.774;7.220;2023-04-25T03:47:15;17.47;;;4.80;;
23410;SDS011;11878;51.774;7.220;2023-04-25T03:50:17;11.93;;;3.93;;
23410;SDS011;11878;51.774;7.220;2023-04-25T03:53:19;13.83;;;4.20;;
23410;SDS011;11878;51.774;7.220;2023-04-25T03:56:39;15.23;;;4.50;;
23410;SDS011;11878;51.774;7.220;2023-04-25T03:59:50;14.60;;;4.73;;
23410;SDS011;11878;51.774;7.220;2023-04-25T04:02:52;18.00;;;4.97;;
23410;SDS011;11878;51.774;7.220;2023-04-25T04:05:54;17.07;;;4.87;;
23410;SDS011;11878;51.774;7.220;2023-04-25T04:08:57;11.73;;;4.80;;
23410;SDS011;11878;51.774;7.220;2023-04-25T04:11:59;15.47;;;3.80;;
23410;SDS011;11878;51.774;7.220;2023-04-25T04:15:04;10.70;;;3.97;;
23410;SDS011;11878;51.774;7.220;2023-04-25T04:18:08;12.17;;;3.57;;
23410;SDS011;11878;51.774;7.220;2023-04-25T04:21:11;12.03;;;3.07;;
23410;SDS011;11878;51.774;7.220;2023-04-25T04:24:14;15.60;;;3.00;;
23410;SDS011;11878;51.774;7.220;2023-04-25T04:27:28;6.13;;;2.53;;
23410;SDS011;11878;51.774;7.220;2023-04-25T04:30:46;11.07;;;2.57;;
23410;SDS011;11878;51.774;7.220;2023-04-25T04:33:48;16.80;;;2.90;;
23410;SDS011;11878;51.774;7.220;2023-04-25T04:36:51;14.50;;;2.83;;
23410;SDS011;11878;51.774;7.220;2023-04-25T04:39:53;9.83;;;2.80;;
23410;SDS011;11878;51.774;7.220;2023-04-25T04:43:17;11.20;;;3.30;;
23410;SDS011;11878;51.774;7.220;2023-04-25T04:46:36;16.40;;;3.03;;
23410;SDS011;11878;51.774;7.220;2023-04-25T04:50:03;5.70;;;1.80;;
23410;SDS011;11878;51.774;7.220;2023-04-25T04:53:33;7.90;;;1.77;;
23410;SDS011;11878;51.774;7.220;2023-04-25T04:56:35;7.33;;;2.37;;
23410;SDS011;11878;51.774;7.220;2023-04-25T05:00:00;7.13;;;2.50;;
23410;SDS011;11878;51.774;7.220;2023-04-25T05:03:20;14.80;;;2.70;;
23410;SDS011;11878;51.774;7.220;2023-04-25T05:06:38;7.27;;;2.07;;
23410;SDS011;11878;51.774;7.220;2023-04-25T05:09:58;5.87;;;1.90;;
23410;SDS011;11878;51.774;7.220;2023-04-25T05:13:19;16.60;;;2.97;;
23410;SDS011;11878;51.774;7.220;2023-04-25T05:16:50;5.53;;;2.20;;
23410;SDS011;11878;51.774;7.220;2023-04-25T05:20:20;4.53;;;1.77;;
23410;SDS011;11878;51.774;7.220;2023-04-25T05:23:46;10.07;;;2.13;;
23410;SDS011;11878;51.774;7.220;2023-04-25T05:27:17;15.03;;;1.80;;
23410;SDS011;11878;51.774;7.220;2023-04-25T05:30:41;12.90;;;2.30;;
23410;SDS011;11878;51.774;7.220;2023-04-25T05:34:05;4.60;;;1.90;;
23410;SDS011;11878;51.774;7.220;2023-04-25T05:37:33;10.37;;;2.30;;
23410;SDS011;11878;51.774;7.220;2023-04-25T05:40:43;9.83;;;2.10;;
23410;SDS011;11878;51.774;7.220;2023-04-25T05:43:51;9.83;;;2.60;;
23410;SDS011;11878;51.774;7.220;2023-04-25T05:47:23;8.07;;;2.47;;
23410;SDS011;11878;51.774;7.220;2023-04-25T05:50:35;13.47;;;2.27;;
23410;SDS011;11878;51.774;7.220;2023-04-25T05:53:47;12.80;;;2.80;;
23410;SDS011;11878;51.774;7.220;2023-04-25T05:56:49;9.00;;;2.97;;
23410;SDS011;11878;51.774;7.220;2023-04-25T05:59:51;16.57;;;2.80;;
23410;SDS011;11878;51.774;7.220;2023-04-25T06:02:54;12.33;;;3.00;;
23410;SDS011;11878;51.774;7.220;2023-04-25T06:05:57;10.10;;;2.97;;
23410;SDS011;11878;51.774;7.220;2023-04-25T06:09:00;13.33;;;2.83;;
23410;SDS011;11878;51.774;7.220;2023-04-25T06:12:02;13.50;;;2.57;;
23410;SDS011;11878;51.774;7.220;2023-04-25T06:15:05;15.33;;;2.40;;
23410;SDS011;11878;51.774;7.220;2023-04-25T06:18:27;12.90;;;2.83;;
23410;SDS011;11878;51.774;7.220;2023-04-25T06:21:29;11.73;;;2.73;;
23410;SDS011;11878;51.774;7.220;2023-04-25T06:24:30;10.97;;;2.70;;
23410;SDS011;11878;51.774;7.220;2023-04-25T06:27:33;10.73;;;2.70;;
23410;SDS011;11878;51.774;7.220;2023-04-25T06:30:38;6.33;;;2.50;;
23410;SDS011;11878;51.774;7.220;2023-04-25T06:33:44;12.27;;;3.57;;
23410;SDS011;11878;51.774;7.220;2023-04-25T06:36:47;18.03;;;3.63;;
23410;SDS011;11878;51.774;7.220;2023-04-25T06:39:50;12.33;;;2.47;;
23410;SDS011;11878;51.774;7.220;2023-04-25T06:42:51;7.33;;;2.40;;
23410;SDS011;11878;51.774;7.220;2023-04-25T06:46:19;7.70;;;2.40;;
23410;SDS011;11878;51.774;7.220;2023-04-25T06:49:23;20.07;;;3.87;;
23410;SDS011;11878;51.774;7.220;2023-04-25T06:52:25;8.27;;;2.33;;
23410;SDS011;11878;51.774;7.220;2023-04-25T06:55:28;7.23;;;2.07;;
23410;SDS011;11878;51.774;7.220;2023-04-25T06:58:50;16.20;;;2.77;;
23410;SDS011;11878;51.774;7.220;2023-04-25T07:02:12;9.40;;;2.00;;
23410;SDS011;11878;51.774;7.220;2023-04-25T07:05:14;10.77;;;2.20;;
23410;SDS011;11878;51.774;7.220;2023-04-25T07:08:20;7.20;;;2.00;;
23410;SDS011;11878;51.774;7.220;2023-04-25T07:11:22;11.20;;;2.47;;
23410;SDS011;11878;51.774;7.220;2023-04-25T07:14:24;10.70;;;2.23;;
23410;SDS011;11878;51.774;7.220;2023-04-25T07:17:26;8.50;;;2.20;;
23410;SDS011;11878;51.774;7.220;2023-04-25T07:20:28;13.23;;;1.93;;
23410;SDS011;11878;51.774;7.220;2023-04-25T07:23:32;8.70;;;1.43;;
23410;SDS011;11878;51.774;7.220;2023-04-25T07:26:38;16.83;;;1.90;;
23410;SDS011;11878;51.774;7.220;2023-04-25T07:30:07;7.33;;;1.47;;
23410;SDS011;11878;51.774;7.220;2023-04-25T07:33:09;10.20;;;2.30;;
23410;SDS011;11878;51.774;7.220;2023-04-25T07:36:11;8.63;;;1.77;;
23410;SDS011;11878;51.774;7.220;2023-04-25T07:39:14;5.90;;;1.23;;
23410;SDS011;11878;51.774;7.220;2023-04-25T07:42:16;9.73;;;1.63;;
23410;SDS011;11878;51.774;7.220;2023-04-25T07:45:18;8.50;;;1.83;;
23410;SDS011;11878;51.774;7.220;2023-04-25T07:48:20;9.77;;;1.80;;
23410;SDS011;11878;51.774;7.220;2023-04-25T07:51:26;15.67;;;1.97;;
23410;SDS011;11878;51.774;7.220;2023-04-25T07:54:31;9.73;;;1.43;;
23410;SDS011;11878;51.774;7.220;2023-04-25T07:57:42;4.40;;;1.37;;
23410;SDS011;11878;51.774;7.220;2023-04-25T08:00:45;9.87;;;2.03;;
23410;SDS011;11878;51.774;7.220;2023-04-25T08:04:22;8.70;;;1.30;;
23410;SDS011;11878;51.774;7.220;2023-04-25T08:07:29;7.67;;;1.47;;
23410;SDS011;11878;51.774;7.220;2023-04-25T08:10:35;7.27;;;1.10;;
23410;SDS011;11878;51.774;7.220;2023-04-25T08:13:39;7.57;;;1.53;;
23410;SDS011;11878;51.774;7.220;2023-04-25T08:16:41;9.73;;;1.57;;
23410;SDS011;11878;51.774;7.220;2023-04-25T08:19:43;8.00;;;1.53;;
23410;SDS011;11878;51.774;7.220;2023-04-25T08:22:55;10.27;;;1.33;;
23410;SDS011;11878;51.774;7.220;2023-04-25T08:26:16;7.03;;;1.33;;
23410;SDS011;11878;51.774;7.220;2023-04-25T08:29:18;10.10;;;1.43;;
23410;SDS011;11878;51.774;7.220;2023-04-25T08:32:20;7.03;;;1.20;;
23410;SDS011;11878;51.774;7.220;2023-04-25T08:35:49;7.83;;;1.70;;
23410;SDS011;11878;51.774;7.220;2023-04-25T08:38:51;5.30;;;1.40;;
23410;SDS011;11878;51.774;7.220;2023-04-25T08:41:56;8.90;;;1.37;;
23410;SDS011;11878;51.774;7.220;2023-04-25T08:44:58;6.57;;;1.40;;
23410;SDS011;11878;51.774;7.220;2023-04-25T08:48:10;6.30;;;1.20;;
23410;SDS011;11878;51.774;7.220;2023-04-25T08:51:17;6.50;;;1.10;;
23410;SDS011;11878;51.774;7.220;2023-04-25T08:54:29;10.20;;;1.50;;
23410;SDS011;11878;51.774;7.220;2023-04-25T08:57:37;8.63;;;1.40;;
23410;SDS011;11878;51.774;7.220;2023-04-25T09:00:40;3.77;;;1.07;;
23410;SDS011;11878;51.774;7.220;2023-04-25T09:03:44;2.90;;;1.20;;
23410;SDS011;11878;51.774;7.220;2023-04-25T09:06:47;10.47;;;1.00;;
23410;SDS011;11878;51.774;7.220;2023-04-25T09:09:51;5.13;;;0.90;;
23410;SDS011;11878;51.774;7.220;2023-04-25T09:13:12;5.67;;;1.30;;
23410;SDS011;11878;51.774;7.220;2023-04-25T09:20:15;2.93;;;0.87;;
23410;SDS011;11878;51.774;7.220;2023-04-25T09:23:17;8.43;;;1.20;;
23410;SDS011;11878;51.774;7.220;2023-04-25T09:26:22;8.73;;;1.57;;
23410;SDS011;11878;51.774;7.220;2023-04-25T09:29:31;4.50;;;1.33;;
23410;SDS011;11878;51.774;7.220;2023-04-25T09:32:35;10.03;;;1.10;;
23410;SDS011;11878;51.774;7.220;2023-04-25T09:35:39;9.37;;;1.10;;
23410;SDS011;11878;51.774;7.220;2023-04-25T09:38:47;8.93;;;1.30;;
23410;SDS011;11878;51.774;7.220;2023-04-25T09:42:02;4.27;;;0.90;;
23410;SDS011;11878;51.774;7.220;2023-04-25T09:45:06;5.93;;;1.23;;
23410;SDS011;11878;51.774;7.220;2023-04-25T09:48:20;4.40;;;1.17;;
23410;SDS011;11878;51.774;7.220;2023-04-25T09:51:26;4.90;;;1.33;;
23410;SDS011;11878;51.774;7.220;2023-04-25T09:54:32;3.87;;;1.00;;
23410;SDS011;11878;51.774;7.220;2023-04-25T09:57:42;3.93;;;0.97;;
23410;SDS011;11878;51.774;7.220;2023-04-25T10:00:48;6.70;;;1.33;;
23410;SDS011;11878;51.774;7.220;2023-04-25T10:04:02;7.80;;;1.53;;
23410;SDS011;11878;51.774;7.220;2023-04-25T10:07:24;3.20;;;0.80;;
23410;SDS011;11878;51.774;7.220;2023-04-25T10:10:30;8.77;;;1.33;;
23410;SDS011;11878;51.774;7.220;2023-04-25T10:13:37;4.13;;;1.23;;
23410;SDS011;11878;51.774;7.220;2023-04-25T10:16:39;8.33;;;1.40;;
23410;SDS011;11878;51.774;7.220;2023-04-25T10:20:02;6.47;;;1.13;;
23410;SDS011;11878;51.774;7.220;2023-04-25T10:23:08;3.90;;;1.10;;
23410;SDS011;11878;51.774;7.220;2023-04-25T10:26:14;6.33;;;1.37;;
23410;SDS011;11878;51.774;7.220;2023-04-25T10:29:26;2.23;;;1.00;;
23410;SDS011;11878;51.774;7.220;2023-04-25T10:32:30;3.43;;;0.90;;
23410;SDS011;11878;51.774;7.220;2023-04-25T10:35:36;5.43;;;1.50;;
23410;SDS011;11878;51.774;7.220;2023-04-25T10:38:38;8.07;;;1.03;;
23410;SDS011;11878;51.774;7.220;2023-04-25T10:41:47;4.73;;;1.27;;
23410;SDS011;11878;51.774;7.220;2023-04-25T10:45:06;7.67;;;1.00;;
23410;SDS011;11878;51.774;7.220;2023-04-25T10:48:27;12.47;;;1.33;;
23410;SDS011;11878;51.774;7.220;2023-04-25T10:51:31;4.57;;;0.47;;
23410;SDS011;11878;51.774;7.220;2023-04-25T10:54:54;5.47;;;0.80;;
23410;SDS011;11878;51.774;7.220;2023-04-25T10:58:01;7.53;;;0.87;;
23410;SDS011;11878;51.774;7.220;2023-04-25T11:01:03;3.70;;;0.57;;
23410;SDS011;11878;51.774;7.220;2023-04-25T11:04:05;5.40;;;0.80;;
23410;SDS011;11878;51.774;7.220;2023-04-25T11:07:29;4.20;;;0.50;;
23410;SDS011;11878;51.774;7.220;2023-04-25T11:10:33;2.47;;;0.57;;
23410;SDS011;11878;51.774;7.220;2023-04-25T11:13:37;2.53;;;0.70;;
23410;SDS011;11878;51.774;7.220;2023-04-25T11:16:38;2.37;;;0.70;;
23410;SDS011;11878;51.774;7.220;2023-04-25T11:19:40;1.47;;;0.67;;
23410;SDS011;11878;51.774;7.220;2023-04-25T11:22:44;2.53;;;0.40;;
23410;SDS011;11878;51.774;7.220;2023-04-25T11:25:47;1.10;;;0.40;;
23410;SDS011;11878;51.774;7.220;2023-04-25T11:28:50;2.70;;;0.60;;
23410;SDS011;11878;51.774;7.220;2023-04-25T11:31:52;4.87;;;0.70;;
23410;SDS011;11878;51.774;7.220;2023-04-25T11:34:58;6.20;;;0.70;;
23410;SDS011;11878;51.774;7.220;2023-04-25T11:37:59;2.80;;;0.70;;
23410;SDS011;11878;51.774;7.220;2023-04-25T11:41:02;2.77;;;0.60;;
23410;SDS011;11878;51.774;7.220;2023-04-25T11:44:04;2.20;;;0.60;;
23410;SDS011;11878;51.774;7.220;2023-04-25T11:47:06;4.30;;;0.70;;
23410;SDS011;11878;51.774;7.220;2023-04-25T11:50:09;5.00;;;0.97;;
23410;SDS011;11878;51.774;7.220;2023-04-25T11:53:11;3.97;;;0.87;;
23410;SDS011;11878;51.774;7.220;2023-04-25T11:56:14;2.37;;;0.80;;
23410;SDS011;11878;51.774;7.220;2023-04-25T11:59:16;3.27;;;0.50;;
23410;SDS011;11878;51.774;7.220;2023-04-25T12:02:24;2.10;;;0.50;;
23410;SDS011;11878;51.774;7.220;2023-04-25T12:05:28;2.63;;;0.33;;
23410;SDS011;11878;51.774;7.220;2023-04-25T12:08:34;2.27;;;0.70;;
23410;SDS011;11878;51.774;7.220;2023-04-25T12:11:42;1.93;;;0.57;;
23410;SDS011;11878;51.774;7.220;2023-04-25T12:14:54;1.97;;;0.67;;
23410;SDS011;11878;51.774;7.220;2023-04-25T12:17:56;1.00;;;0.30;;
23410;SDS011;11878;51.774;7.220;2023-04-25T12:20:58;2.30;;;0.33;;
23410;SDS011;11878;51.774;7.220;2023-04-25T12:27:39;4.63;;;0.63;;
23410;SDS011;11878;51.774;7.220;2023-04-25T12:31:01;1.70;;;0.50;;
23410;SDS011;11878;51.774;7.220;2023-04-25T12:34:04;2.90;;;0.50;;
23410;SDS011;11878;51.774;7.220;2023-04-25T12:37:07;4.03;;;0.70;;
23410;SDS011;11878;51.774;7.220;2023-04-25T12:40:09;1.53;;;0.50;;
23410;SDS011;11878;51.774;7.220;2023-04-25T12:43:11;2.30;;;0.50;;
23410;SDS011;11878;51.774;7.220;2023-04-25T12:46:13;3.47;;;0.70;;
23410;SDS011;11878;51.774;7.220;2023-04-25T12:49:15;4.27;;;0.70;;
23410;SDS011;11878;51.774;7.220;2023-04-25T12:52:19;1.67;;;0.47;;
23410;SDS011;11878;51.774;7.220;2023-04-25T12:55:21;3.87;;;1.00;;
23410;SDS011;11878;51.774;7.220;2023-04-25T12:58:24;2.67;;;0.50;;
23410;SDS011;11878;51.774;7.220;2023-04-25T13:01:26;0.50;;;0.40;;
23410;SDS011;11878;51.774;7.220;2023-04-25T13:04:29;0.67;;;0.40;;
23410;SDS011;11878;51.774;7.220;2023-04-25T13:07:31;2.57;;;0.40;;
23410;SDS011;11878;51.774;7.220;2023-04-25T13:10:36;1.23;;;0.40;;
23410;SDS011;11878;51.774;7.220;2023-04-25T13:13:39;2.43;;;0.30;;
23410;SDS011;11878;51.774;7.220;2023-04-25T13:16:42;0.93;;;0.60;;
23410;SDS011;11878;51.774;7.220;2023-04-25T13:19:43;3.27;;;0.50;;
23410;SDS011;11878;51.774;7.220;2023-04-25T13:22:45;0.87;;;0.57;;
23410;SDS011;11878;51.774;7.220;2023-04-25T13:25:47;3.03;;;0.90;;
23410;SDS011;11878;51.774;7.220;2023-04-25T13:28:49;5.03;;;0.70;;
23410;SDS011;11878;51.774;7.220;2023-04-25T13:31:51;1.57;;;0.70;;
23410;SDS011;11878;51.774;7.220;2023-04-25T13:34:53;4.47;;;0.70;;
23410;SDS011;11878;51.774;7.220;2023-04-25T13:37:55;1.73;;;0.73;;
23410;SDS011;11878;51.774;7.220;2023-04-25T13:40:58;3.40;;;0.50;;
23410;SDS011;11878;51.774;7.220;2023-04-25T13:43:59;2.20;;;1.00;;
23410;SDS011;11878;51.774;7.220;2023-04-25T13:47:02;7.70;;;1.20;;
23410;SDS011;11878;51.774;7.220;2023-04-25T13:50:04;2.90;;;0.60;;
23410;SDS011;11878;51.774;7.220;2023-04-25T13:53:07;2.33;;;0.60;;
23410;SDS011;11878;51.774;7.220;2023-04-25T13:56:09;3.90;;;1.20;;
23410;SDS011;11878;51.774;7.220;2023-04-25T13:59:12;2.57;;;0.80;;
23410;SDS011;11878;51.774;7.220;2023-04-25T14:02:14;2.40;;;0.60;;
23410;SDS011;11878;51.774;7.220;2023-04-25T14:05:16;1.43;;;0.60;;
23410;SDS011;11878;51.774;7.220;2023-04-25T14:08:18;2.43;;;0.73;;
23410;SDS011;11878;51.774;7.220;2023-04-25T14:11:20;1.93;;;0.63;;
23410;SDS011;11878;51.774;7.220;2023-04-25T14:14:21;4.10;;;0.70;;
23410;SDS011;11878;51.774;7.220;2023-04-25T14:17:24;4.03;;;0.70;;
23410;SDS011;11878;51.774;7.220;2023-04-25T14:20:27;1.93;;;0.63;;
23410;SDS011;11878;51.774;7.220;2023-04-25T14:23:29;2.37;;;0.60;;
23410;SDS011;11878;51.774;7.220;2023-04-25T14:26:32;9.50;;;1.23;;
23410;SDS011;11878;51.774;7.220;2023-04-25T14:29:35;2.60;;;1.00;;
23410;SDS011;11878;51.774;7.220;2023-04-25T14:32:37;5.40;;;0.97;;
23410;SDS011;11878;51.774;7.220;2023-04-25T14:35:39;1.60;;;0.83;;
23410;SDS011;11878;51.774;7.220;2023-04-25T14:38:41;1.67;;;0.50;;
23410;SDS011;11878;51.774;7.220;2023-04-25T14:41:44;1.20;;;0.70;;
23410;SDS011;11878;51.774;7.220;2023-04-25T14:44:46;1.77;;;0.67;;
23410;SDS011;11878;51.774;7.220;2023-04-25T14:47:48;3.97;;;1.00;;
23410;SDS011;11878;51.774;7.220;2023-04-25T14:50:50;0.93;;;0.40;;
23410;SDS011;11878;51.774;7.220;2023-04-25T14:53:53;4.10;;;0.93;;
23410;SDS011;11878;51.774;7.220;2023-04-25T14:56:55;3.83;;;0.87;;
23410;SDS011;11878;51.774;7.220;2023-04-25T15:00:04;2.73;;;0.90;;
23410;SDS011;11878;51.774;7.220;2023-04-25T15:03:10;4.23;;;0.77;;
23410;SDS011;11878;51.774;7.220;2023-04-25T15:06:14;2.90;;;0.67;;
23410;SDS011;11878;51.774;7.220;2023-04-25T15:09:16;5.17;;;1.00;;
23410;SDS011;11878;51.774;7.220;2023-04-25T15:12:19;5.20;;;1.17;;
23410;SDS011;11878;51.774;7.220;2023-04-25T15:15:24;6.87;;;0.87;;
23410;SDS011;11878;51.774;7.220;2023-04-25T15:18:29;6.80;;;0.80;;
23410;SDS011;11878;51.774;7.220;2023-04-25T15:21:31;1.27;;;0.63;;
23410;SDS011;11878;51.774;7.220;2023-04-25T15:24:35;2.37;;;0.90;;
23410;SDS011;11878;51.774;7.220;2023-04-25T15:27:37;5.80;;;0.63;;
23410;SDS011;11878;51.774;7.220;2023-04-25T15:30:43;7.80;;;0.60;;
23410;SDS011;11878;51.774;7.220;2023-04-25T15:33:45;6.13;;;0.70;;
23410;SDS011;11878;51.774;7.220;2023-04-25T15:36:47;5.20;;;0.80;;
23410;SDS011;11878;51.774;7.220;2023-04-25T15:40:00;2.87;;;0.70;;
23410;SDS011;11878;51.774;7.220;2023-04-25T15:43:08;4.50;;;0.53;;
23410;SDS011;11878;51.774;7.220;2023-04-25T15:46:16;3.53;;;1.07;;
23410;SDS011;11878;51.774;7.220;2023-04-25T15:49:18;1.30;;;0.57;;
23410;SDS011;11878;51.774;7.220;2023-04-25T15:52:21;1.43;;;0.53;;
23410;SDS011;11878;51.774;7.220;2023-04-25T15:55:23;6.97;;;1.13;;
23410;SDS011;11878;51.774;7.220;2023-04-25T15:58:27;2.90;;;0.90;;
23410;SDS011;11878;51.774;7.220;2023-04-25T16:01:29;2.93;;;0.40;;
23410;SDS011;11878;51.774;7.220;2023-04-25T16:04:31;3.27;;;0.83;;
23410;SDS011;11878;51.774;7.220;2023-04-25T16:07:36;4.47;;;0.80;;
23410;SDS011;11878;51.774;7.220;2023-04-25T16:10:41;1.50;;;0.50;;
23410;SDS011;11878;51.774;7.220;2023-04-25T16:13:46;2.43;;;0.90;;
23410;SDS011;11878;51.774;7.220;2023-04-25T16:16:48;2.90;;;0.77;;
23410;SDS011;11878;51.774;7.220;2023-04-25T16:19:51;2.57;;;0.70;;
23410;SDS011;11878;51.774;7.220;2023-04-25T16:22:53;3.87;;;1.00;;
23410;SDS011;11878;51.774;7.220;2023-04-25T16:25:54;8.07;;;0.90;;
23410;SDS011;11878;51.774;7.220;2023-04-25T16:28:56;2.67;;;0.80;;
23410;SDS011;11878;51.774;7.220;2023-04-25T16:31:58;3.10;;;0.77;;
23410;SDS011;11878;51.774;7.220;2023-04-25T16:35:01;3.03;;;0.90;;
23410;SDS011;11878;51.774;7.220;2023-04-25T16:38:03;1.77;;;0.53;;
23410;SDS011;11878;51.774;7.220;2023-04-25T16:41:05;4.63;;;0.93;;
23410;SDS011;11878;51.774;7.220;2023-04-25T16:44:07;2.13;;;0.53;;
23410;SDS011;11878;51.774;7.220;2023-04-25T16:47:09;4.47;;;0.77;;
23410;SDS011;11878;51.774;7.220;2023-04-25T16:50:17;2.53;;;0.53;;
23410;SDS011;11878;51.774;7.220;2023-04-25T16:53:20;1.63;;;0.60;;
23410;SDS011;11878;51.774;7.220;2023-04-25T16:56:23;6.07;;;0.87;;
23410;SDS011;11878;51.774;7.220;2023-04-25T16:59:26;4.47;;;0.90;;
23410;SDS011;11878;51.774;7.220;2023-04-25T17:02:42;5.10;;;1.00;;
23410;SDS011;11878;51.774;7.220;2023-04-25T17:05:44;1.90;;;0.60;;
23410;SDS011;11878;51.774;7.220;2023-04-25T17:08:45;3.07;;;0.70;;
23410;SDS011;11878;51.774;7.220;2023-04-25T17:11:47;4.93;;;0.70;;
23410;SDS011;11878;51.774;7.220;2023-04-25T17:14:49;3.60;;;0.70;;
23410;SDS011;11878;51.774;7.220;2023-04-25T17:17:51;4.57;;;0.60;;
23410;SDS011;11878;51.774;7.220;2023-04-25T17:20:53;2.70;;;0.50;;
23410;SDS011;11878;51.774;7.220;2023-04-25T17:23:56;2.50;;;0.60;;
23410;SDS011;11878;51.774;7.220;2023-04-25T17:26:59;7.97;;;1.40;;
23410;SDS011;11878;51.774;7.220;2023-04-25T17:30:02;2.93;;;0.60;;
23410;SDS011;11878;51.774;7.220;2023-04-25T17:33:05;2.33;;;0.63;;
23410;SDS011;11878;51.774;7.220;2023-04-25T17:36:07;6.10;;;0.80;;
23410;SDS011;11878;51.774;7.220;2023-04-25T17:39:09;6.77;;;1.27;;
23410;SDS011;11878;51.774;7.220;2023-04-25T17:42:11;6.03;;;1.23;;
23410;SDS011;11878;51.774;7.220;2023-04-25T17:45:13;3.23;;;0.90;;
23410;SDS011;11878;51.774;7.220;2023-04-25T17:48:14;3.37;;;0.77;;
23410;SDS011;11878;51.774;7.220;2023-04-25T17:51:16;4.77;;;1.63;;
23410;SDS011;11878;51.774;7.220;2023-04-25T17:54:18;1.50;;;0.60;;
23410;SDS011;11878;51.774;7.220;2023-04-25T17:57:22;1.67;;;0.67;;
23410;SDS011;11878;51.774;7.220;2023-04-25T18:00:25;2.33;;;1.00;;
23410;SDS011;11878;51.774;7.220;2023-04-25T18:03:27;4.50;;;1.83;;
23410;SDS011;11878;51.774;7.220;2023-04-25T18:06:29;5.63;;;1.60;;
23410;SDS011;11878;51.774;7.220;2023-04-25T18:09:33;5.30;;;0.90;;
23410;SDS011;11878;51.774;7.220;2023-04-25T18:12:35;1.87;;;0.80;;
23410;SDS011;11878;51.774;7.220;2023-04-25T18:15:38;3.07;;;0.80;;
23410;SDS011;11878;51.774;7.220;2023-04-25T18:18:40;4.47;;;1.07;;
23410;SDS011;11878;51.774;7.220;2023-04-25T18:21:43;3.20;;;0.60;;
23410;SDS011;11878;51.774;7.220;2023-04-25T18:24:46;5.70;;;1.00;;
23410;SDS011;11878;51.774;7.220;2023-04-25T18:27:47;8.33;;;1.40;;
23410;SDS011;11878;51.774;7.220;2023-04-25T18:30:50;3.43;;;0.97;;
23410;SDS011;11878;51.774;7.220;2023-04-25T18:33:52;5.03;;;1.23;;
23410;SDS011;11878;51.774;7.220;2023-04-25T18:36:54;6.27;;;2.37;;
23410;SDS011;11878;51.774;7.220;2023-04-25T18:39:57;8.40;;;3.33;;